.
WxDataArchive / Data Records for 2010-06-13
2010-06-12 June 2010 2010-06-14

Data Records for Sunday, 13 June 2010

Time	Temp	Chill	HIndex	Humid	Dewpt	 Wind 	HiWind	WindDir	Rain 	Barom 
-----	----	-----	------	-----	-----	------	------	-------	-----	----- 
00:00	70.4	70.4	70.4	96	69.2	0	1	292	0.00	29.978 
00:05	70.4	70.4	70.4	95	68.9	0	0	---	0.00	29.978 
00:10	70.6	70.6	70.6	96	69.4	0	0	---	0.00	29.978 
00:15	70.6	70.6	70.6	96	69.4	0	0	---	0.00	29.976 
00:20	70.4	70.4	70.4	96	69.2	0	0	---	0.00	29.976 
00:25	70.4	70.4	70.4	96	69.2	0	0	---	0.00	29.976 
00:30	70.3	70.3	70.3	96	69.1	0	0	---	0.00	29.974 
00:35	70.3	70.3	70.3	96	69.1	0	0	---	0.00	29.974 
00:40	70.3	70.3	70.3	96	69.1	0	0	---	0.00	29.974 
00:45	70.3	70.3	70.3	96	69.1	0	0	---	0.00	29.971 
00:50	70.3	70.3	70.3	96	69.1	0	0	---	0.00	29.971 
00:55	70.3	70.3	70.3	96	69.1	0	0	---	0.00	29.971 
01:00	70.3	70.3	70.3	96	69.1	0	0	---	0.00	29.959 
01:05	70.3	70.3	70.3	96	69.1	0	0	---	0.00	29.959 
01:10	70.3	70.3	70.3	96	69.1	0	0	---	0.00	29.959 
01:15	70.3	70.3	70.3	96	69.1	0	0	---	0.00	29.948 
01:20	70.3	70.3	70.3	96	69.1	0	0	---	0.00	29.948 
01:25	70.3	70.3	70.3	96	69.1	0	0	---	0.00	29.948 
01:30	70.3	70.3	70.3	96	69.1	0	0	---	0.00	29.942 
01:35	70.3	70.3	70.3	96	69.1	0	0	---	0.00	29.942 
01:40	70.1	70.1	70.1	96	68.9	0	0	---	0.00	29.942 
01:45	70.1	70.1	70.1	96	68.9	0	0	---	0.00	29.941 
01:50	69.9	69.9	69.9	96	68.7	0	0	---	0.00	29.941 
01:55	69.8	69.8	69.8	96	68.6	0	0	---	0.00	29.941 
02:00	69.8	69.8	69.8	96	68.6	0	0	---	0.00	29.937 
02:05	69.8	69.8	69.8	96	68.6	0	0	---	0.00	29.937 
02:10	69.8	69.8	69.8	96	68.6	0	0	---	0.00	29.937 
02:15	69.8	69.8	69.8	96	68.6	0	0	---	0.00	29.933 
02:20	69.9	69.9	69.9	96	68.7	0	0	---	0.00	29.933 
02:25	70.1	70.1	70.1	96	68.9	0	0	---	0.00	29.933 
02:30	70.3	70.3	70.3	96	69.1	0	0	---	0.00	29.927 
02:35	70.3	70.3	70.3	96	69.1	0	0	---	0.00	29.927 
02:40	70.3	70.3	70.3	96	69.1	0	1	292	0.00	29.927 
02:45	70.3	70.3	70.3	96	69.1	0	0	---	0.00	29.925 
02:50	70.4	70.4	70.4	96	69.2	0	0	---	0.00	29.925 
02:55	70.4	70.4	70.4	96	69.2	0	0	---	0.00	29.925 
03:00	70.3	70.3	70.3	96	69.1	0	0	---	0.00	29.924 
03:05	70.4	70.4	70.4	96	69.2	0	0	---	0.00	29.924 
03:10	70.4	70.4	70.4	96	69.2	0	0	---	0.00	29.924 
03:15	70.4	70.4	70.4	96	69.2	0	0	---	0.00	29.927 
03:20	70.4	70.4	70.4	96	69.2	0	0	---	0.00	29.927 
03:25	70.4	70.4	70.4	96	69.2	0	0	---	0.00	29.927 
03:30	70.4	70.4	70.4	96	69.2	0	1	292	0.00	29.919 
03:35	70.4	70.4	70.4	96	69.2	0	1	292	0.00	29.919 
03:40	70.4	70.4	70.4	96	69.2	0	1	292	0.00	29.919 
03:45	70.4	70.4	70.4	96	69.2	0	1	292	0.00	29.914 
03:50	70.4	70.4	70.4	96	69.2	0	1	292	0.00	29.914 
03:55	70.3	70.3	70.3	96	69.1	0	1	292	0.00	29.914 
04:00	70.3	70.3	70.3	96	69.1	0	2	292	0.00	29.914 
04:05	70.3	70.3	70.3	96	69.1	0	1	292	0.00	29.914 
04:10	70.3	70.3	70.3	96	69.1	0	2	292	0.00	29.914 
04:15	70.3	70.3	70.3	96	69.1	0	1	292	0.00	29.912 
04:20	70.1	70.1	70.1	96	68.9	0	1	292	0.00	29.912 
04:25	69.9	69.9	69.9	96	68.7	1	3	292	0.00	29.912 
04:30	69.9	69.9	69.9	96	68.7	0	2	292	0.00	29.914 
04:35	69.9	69.9	69.9	96	68.7	0	2	292	0.00	29.914 
04:40	69.9	69.9	69.9	96	68.7	0	1	292	0.00	29.914 
04:45	69.8	69.8	69.8	96	68.6	0	2	292	0.00	29.912 
04:50	69.8	69.8	69.8	96	68.6	0	1	292	0.00	29.912 
04:55	69.8	69.8	69.8	96	68.6	0	1	292	0.00	29.912 
05:00	69.8	69.8	69.8	96	68.6	0	2	292	0.00	29.914 
05:05	69.6	69.6	69.6	96	68.4	0	1	292	0.00	29.914 
05:10	69.6	69.6	69.6	96	68.4	0	1	292	0.00	29.914 
05:15	69.4	69.4	69.4	96	68.2	0	1	292	0.00	29.913 
05:20	69.4	69.4	69.4	96	68.2	0	1	292	0.00	29.913 
05:25	69.3	69.3	69.3	96	68.1	0	2	292	0.00	29.913 
05:30	69.3	69.3	69.3	96	68.1	0	1	292	0.00	29.920 
05:35	69.3	69.3	69.3	96	68.1	0	1	292	0.00	29.920 
05:40	69.3	69.3	69.3	96	68.1	0	1	292	0.00	29.920 
05:45	69.3	69.3	69.3	96	68.1	0	2	292	0.01	29.921 
05:50	69.1	69.1	69.1	96	67.9	1	3	292	0.00	29.921 
05:55	69.1	69.1	69.1	96	67.9	1	3	292	0.00	29.921 
06:00	69.1	69.1	69.1	95	67.6	0	1	292	0.00	29.927 
06:05	68.9	68.9	68.9	95	67.4	0	2	292	0.00	29.927 
06:10	68.8	68.8	68.8	95	67.3	0	1	292	0.00	29.927 
06:15	68.4	68.4	68.4	95	66.9	1	3	292	0.00	29.937 
06:20	68.3	68.3	68.3	95	66.8	0	2	292	0.00	29.937 
06:25	68.1	68.1	68.1	95	66.6	0	1	292	0.00	29.937 
06:30	68.1	68.1	68.1	95	66.6	0	1	292	0.00	29.942 
06:35	68.1	68.1	68.1	95	66.6	0	1	292	0.00	29.942 
06:40	68.1	68.1	68.1	95	66.6	0	1	292	0.00	29.942 
06:45	67.8	67.8	67.8	94	66.0	1	3	292	0.00	29.956 
06:50	67.6	67.6	67.6	94	65.8	1	3	292	0.00	29.956 
06:55	67.4	67.4	67.4	94	65.6	0	2	315	0.00	29.956 
07:00	67.4	67.4	67.4	94	65.6	0	1	315	0.00	29.961 
07:05	67.4	67.4	67.4	94	65.6	0	2	315	0.00	29.961 
07:10	67.4	67.4	67.4	94	65.6	0	3	315	0.00	29.961 
07:15	67.4	67.4	67.4	94	65.6	1	4	270	0.00	29.975 
07:20	67.3	67.3	67.3	93	65.2	1	3	292	0.00	29.975 
07:25	67.1	67.1	67.1	93	65.0	1	3	292	0.00	29.975 
07:30	67.1	67.1	67.1	93	65.0	1	2	292	0.00	29.984 
07:35	67.1	67.1	67.1	93	65.0	0	2	292	0.00	29.984 
07:40	67.1	67.1	67.1	93	65.0	0	2	292	0.00	29.984 
07:45	67.1	67.1	67.1	94	65.3	1	3	292	0.00	29.985 
07:50	67.1	67.1	67.1	94	65.3	1	3	292	0.00	29.985 
07:55	66.9	66.9	66.9	94	65.1	1	3	315	0.00	29.985 
08:00	66.9	66.9	66.9	94	65.1	0	2	315	0.00	29.991 
08:05	66.9	66.9	66.9	94	65.1	1	2	315	0.00	29.991 
08:10	66.9	66.9	66.9	94	65.1	1	2	315	0.00	29.991 
08:15	66.9	66.9	66.9	93	64.8	1	4	315	0.00	29.993 
08:20	67.1	67.1	67.1	93	65.0	1	3	315	0.00	29.993 
08:25	67.4	67.4	67.4	93	65.3	1	2	315	0.00	29.993 
08:30	67.6	67.6	67.6	92	65.2	1	3	315	0.00	29.992 
08:35	67.9	67.9	67.9	91	65.2	1	4	315	0.00	29.992 
08:40	68.4	68.4	68.4	91	65.7	0	2	315	0.00	29.992 
08:45	68.6	68.6	68.6	89	65.2	1	3	315	0.00	29.992 
08:50	68.9	68.9	68.9	88	65.2	1	3	315	0.00	29.992 
08:55	69.1	69.1	69.1	86	64.7	1	3	315	0.00	29.992 
09:00	69.8	69.8	69.8	86	65.4	1	3	315	0.00	29.995 
09:05	69.9	69.9	69.9	85	65.2	1	3	315	0.00	29.995 
09:10	69.9	69.9	69.9	84	64.8	1	3	315	0.00	29.995 
09:15	70.3	70.3	70.3	84	65.2	1	4	315	0.00	29.996 
09:20	70.6	70.6	70.6	83	65.2	1	3	270	0.00	29.996 
09:25	70.8	70.8	70.8	82	65.0	1	5	315	0.00	29.996 
09:30	70.9	70.9	70.9	82	65.1	2	4	315	0.00	29.995 
09:35	71.1	71.1	71.1	82	65.3	2	4	270	0.00	29.995 
09:40	71.3	71.3	71.3	82	65.5	2	5	270	0.00	29.995 
09:45	71.5	71.5	71.5	82	65.7	2	4	270	0.00	29.997 
09:50	71.6	71.6	71.6	82	65.8	1	5	315	0.00	29.997 
09:55	71.8	71.8	71.8	81	65.6	1	3	270	0.00	29.997 
10:00	72.0	72.0	72.0	81	65.8	1	3	270	0.00	30.000 
10:05	72.1	72.1	72.1	81	65.9	1	2	270	0.00	30.000 
10:10	72.5	72.5	72.5	81	66.3	2	5	292	0.00	30.000 
10:15	72.7	72.7	72.7	79	65.8	1	3	292	0.00	29.999 
10:20	73.0	73.0	73.0	80	66.5	1	4	292	0.00	29.999 
10:25	73.0	73.0	73.0	78	65.7	1	3	292	0.00	29.999 
10:30	73.0	73.0	73.0	79	66.1	1	4	292	0.00	30.000 
10:35	73.2	73.2	73.2	80	66.6	1	2	292	0.00	30.000 
10:40	73.5	73.5	73.5	78	66.2	2	5	292	0.00	30.000 
10:45	73.2	73.2	73.2	78	65.9	2	5	292	0.00	30.000 
10:50	73.0	73.0	73.0	77	65.3	2	4	270	0.00	30.000 
10:55	72.7	72.7	72.7	77	65.1	2	4	292	0.00	30.000 
11:00	72.7	72.7	72.7	78	65.4	1	4	292	0.00	29.999 
11:05	72.7	72.7	72.7	78	65.4	1	4	315	0.00	29.999 
11:10	72.8	72.8	72.8	78	65.5	1	3	315	0.00	29.999 
11:15	73.3	73.3	73.3	78	66.0	1	3	315	0.00	29.998 
11:20	73.7	73.7	73.7	77	66.0	1	2	315	0.00	29.998 
11:25	74.2	74.2	74.2	79	67.3	0	2	315	0.00	29.998 
11:30	74.4	74.4	74.4	76	66.3	1	4	270	0.00	29.999 
11:35	74.7	74.7	74.7	73	65.5	1	3	270	0.00	29.999 
11:40	74.6	74.6	74.6	73	65.4	1	3	315	0.00	29.999 
11:45	74.7	74.7	74.7	75	66.2	0	2	270	0.00	29.996 
11:50	74.9	74.9	74.9	75	66.4	0	1	270	0.00	29.996 
11:55	75.1	75.1	76.3	75	66.6	1	4	270	0.00	29.996 
12:00	74.7	74.7	74.7	74	65.8	2	5	270	0.00	29.999 
12:05	74.6	74.6	74.6	75	66.1	1	5	270	0.00	29.999 
12:10	74.4	74.4	74.4	75	65.9	2	4	270	0.00	29.999 
12:15	74.6	74.6	74.6	77	66.9	1	2	292	0.00	29.999 
12:20	74.6	74.6	74.6	75	66.1	2	4	315	0.00	29.999 
12:25	74.6	74.6	74.6	75	66.1	2	5	270	0.00	29.999 
12:30	74.4	74.4	74.4	75	65.9	2	5	292	0.00	30.004 
12:35	74.0	74.0	74.0	76	65.9	2	5	270	0.00	30.004 
12:40	74.0	74.0	74.0	77	66.3	1	3	292	0.00	30.004 
12:45	74.2	74.2	74.2	77	66.5	1	2	292	0.00	30.003 
12:50	74.7	74.7	74.7	76	66.6	1	3	292	0.00	30.003 
12:55	75.1	75.1	76.4	74	66.2	2	3	292	0.00	30.003 
13:00	74.9	74.9	74.9	75	66.4	2	5	315	0.00	30.005 
13:05	75.4	75.4	76.8	73	66.1	2	4	315	0.00	30.005 
13:10	76.0	76.0	77.5	73	66.7	1	3	315	0.00	30.005 
13:15	76.3	76.3	77.8	73	67.0	1	3	315	0.00	29.998 
13:20	76.5	76.5	78.1	73	67.2	1	3	315	0.00	29.998 
13:25	76.3	76.3	77.9	71	66.2	1	4	315	0.00	29.998 
13:30	76.3	76.3	77.8	74	67.4	1	4	292	0.00	29.997 
13:35	76.3	76.3	77.8	74	67.4	1	3	292	0.00	29.997 
13:40	76.5	76.5	78.1	73	67.2	1	3	315	0.00	29.997 
13:45	76.7	76.7	78.4	72	67.0	1	3	315	0.00	29.997 
13:50	76.5	76.5	78.2	71	66.4	2	3	315	0.00	29.997 
13:55	76.5	76.5	78.2	71	66.4	1	5	315	0.00	29.997 
14:00	76.5	76.5	78.2	71	66.4	2	4	270	0.00	29.996 
14:05	76.8	76.8	78.5	72	67.1	1	3	270	0.00	29.996 
14:10	76.8	76.8	78.5	70	66.3	2	4	270	0.00	29.996 
14:15	76.8	76.8	78.5	71	66.7	1	4	292	0.00	29.998 
14:20	76.7	76.7	78.4	71	66.6	2	4	292	0.00	29.998 
14:25	76.7	76.7	78.4	72	67.0	2	5	292	0.00	29.998 
14:30	76.8	76.8	78.5	71	66.7	1	3	292	0.00	29.995 
14:35	77.2	77.2	79.0	70	66.6	1	4	292	0.00	29.995 
14:40	77.4	77.4	79.3	70	66.8	1	4	292	0.00	29.995 
14:45	77.7	77.7	79.6	69	66.7	2	5	292	0.00	29.988 
14:50	77.9	77.9	79.9	69	66.9	1	3	292	0.00	29.988 
14:55	77.7	77.7	79.6	69	66.7	1	3	292	0.00	29.988 
15:00	77.7	77.7	79.6	69	66.7	1	4	292	0.00	29.988 
15:05	77.7	77.7	79.6	70	67.1	1	4	292	0.00	29.988 
15:10	77.4	77.4	79.2	69	66.4	2	4	292	0.00	29.988 
15:15	77.0	77.0	78.8	70	66.4	2	4	292	0.00	29.995 
15:20	77.2	77.2	79.0	69	66.2	2	4	270	0.00	29.995 
15:25	77.6	77.6	79.5	70	67.0	2	4	292	0.00	29.995 
15:30	77.4	77.4	79.2	68	66.0	1	4	338	0.00	29.997 
15:35	77.4	77.4	79.2	69	66.4	2	5	292	0.00	29.997 
15:40	77.9	77.9	79.8	68	66.5	2	4	292	0.00	29.997 
15:45	78.1	78.1	80.0	67	66.2	2	5	292	0.00	30.001 
15:50	77.7	77.7	79.6	67	65.8	2	5	270	0.00	30.001 
15:55	77.9	77.9	79.8	67	66.0	2	4	292	0.00	30.001 
16:00	77.9	77.9	79.8	67	66.0	2	4	270	0.00	29.996 
16:05	77.7	77.7	79.6	69	66.7	1	4	270	0.00	29.996 
16:10	77.9	77.9	79.8	68	66.5	1	4	270	0.00	29.996 
16:15	78.1	78.1	80.0	67	66.2	2	5	270	0.00	29.994 
16:20	78.3	78.3	80.5	72	68.5	1	3	270	0.00	29.994 
16:25	78.1	78.1	80.0	67	66.2	2	4	270	0.00	29.994 
16:30	78.5	78.5	80.6	68	67.0	1	4	270	0.00	29.995 
16:35	78.8	78.8	80.9	67	66.9	2	4	292	0.00	29.995 
16:40	78.8	78.8	80.9	67	66.9	1	4	292	0.00	29.995 
16:45	79.0	79.0	81.3	68	67.5	1	4	315	0.00	29.992 
16:50	79.2	79.2	81.3	65	66.4	0	3	270	0.00	29.992 
16:55	79.0	79.0	81.0	65	66.2	1	4	315	0.00	29.992 
17:00	79.2	79.2	81.5	67	67.3	1	4	292	0.00	29.993 
17:05	79.2	79.2	81.5	67	67.3	1	3	315	0.00	29.993 
17:10	79.2	79.2	81.5	68	67.7	2	5	270	0.00	29.993 
17:15	79.2	79.2	81.4	66	66.8	2	5	270	0.00	29.981 
17:20	79.2	79.2	81.3	65	66.4	2	5	270	0.00	29.981 
17:25	79.4	79.4	81.6	65	66.6	1	3	270	0.00	29.981 
17:30	79.2	79.2	81.3	65	66.4	2	4	292	0.00	29.981 
17:35	79.2	79.2	81.4	66	66.8	1	3	292	0.00	29.981 
17:40	79.4	79.4	81.6	66	67.0	1	3	315	0.00	29.981 
17:45	79.6	79.6	81.9	66	67.2	0	2	315	0.00	29.980 
17:50	79.6	79.6	81.8	65	66.8	1	3	315	0.00	29.980 
17:55	79.2	79.2	81.5	67	67.3	1	3	292	0.00	29.980 
18:00	78.6	78.6	80.6	66	66.3	1	2	292	0.00	29.979 
18:05	78.3	78.3	80.3	67	66.4	1	3	315	0.00	29.979 
18:10	78.3	78.3	80.4	69	67.3	0	1	315	0.00	29.979 
18:15	78.5	78.5	80.5	67	66.6	1	3	315	0.00	29.978 
18:20	78.3	78.3	80.3	67	66.4	1	3	292	0.00	29.978 
18:25	78.3	78.3	80.3	68	66.8	1	3	292	0.00	29.978 
18:30	77.9	77.9	79.9	69	66.9	1	3	315	0.00	29.970 
18:35	77.7	77.7	79.6	69	66.7	1	3	315	0.00	29.970 
18:40	77.6	77.6	79.5	69	66.6	1	3	315	0.00	29.970 
18:45	77.4	77.4	79.2	69	66.4	1	3	315	0.00	29.965 
18:50	77.4	77.4	79.2	69	66.4	1	3	315	0.00	29.965 
18:55	77.6	77.6	79.5	69	66.6	1	2	315	0.00	29.965 
19:00	77.7	77.7	79.6	70	67.1	1	2	315	0.00	29.956 
19:05	77.6	77.6	79.5	69	66.6	2	4	315	0.00	29.956 
19:10	77.4	77.4	79.2	69	66.4	1	2	292	0.00	29.956 
19:15	77.4	77.4	79.3	70	66.8	0	1	292	0.00	29.965 
19:20	77.0	77.0	78.8	71	66.9	0	3	292	0.00	29.965 
19:25	76.8	76.8	78.5	71	66.7	1	3	292	0.00	29.965 
19:30	76.5	76.5	78.2	71	66.4	1	3	292	0.00	29.964 
19:35	76.5	76.5	78.2	71	66.4	0	1	292	0.00	29.964 
19:40	76.5	76.5	78.1	72	66.8	0	0	---	0.00	29.964 
19:45	76.5	76.5	78.1	72	66.8	0	1	292	0.00	29.953 
19:50	76.5	76.5	78.1	72	66.8	0	1	292	0.00	29.953 
19:55	76.3	76.3	77.9	72	66.6	0	1	292	0.00	29.953 
20:00	76.3	76.3	77.9	72	66.6	0	0	---	0.00	29.938 
20:05	76.1	76.1	77.7	72	66.4	0	1	292	0.00	29.938 
20:10	76.1	76.1	77.6	73	66.8	0	1	292	0.00	29.938 
20:15	76.1	76.1	77.6	73	66.8	0	0	---	0.00	29.943 
20:20	76.0	76.0	77.4	74	67.1	0	1	292	0.00	29.943 
20:25	76.0	76.0	77.4	74	67.1	0	0	---	0.00	29.943 
20:30	75.8	75.8	77.2	74	66.9	0	0	---	0.00	29.928 
20:35	75.8	75.8	77.2	74	66.9	0	0	---	0.00	29.928 
20:40	75.6	75.6	76.9	75	67.1	0	0	---	0.00	29.928 
20:45	75.4	75.4	76.6	75	66.9	0	0	---	0.00	29.934 
20:50	75.3	75.3	76.4	76	67.2	0	0	---	0.00	29.934 
20:55	75.1	75.1	76.1	77	67.4	0	0	---	0.00	29.934 
21:00	74.7	74.7	74.7	77	67.0	0	0	---	0.00	29.945 
21:05	74.6	74.6	74.6	77	66.9	0	0	---	0.00	29.945 
21:10	74.6	74.6	74.6	78	67.3	0	0	---	0.00	29.945 
21:15	74.6	74.6	74.6	79	67.6	0	0	---	0.00	29.945 
21:20	74.4	74.4	74.4	79	67.4	0	0	---	0.00	29.945 
21:25	74.4	74.4	74.4	79	67.4	0	0	---	0.00	29.945 
21:30	74.2	74.2	74.2	80	67.6	0	0	---	0.00	29.937 
21:35	74.0	74.0	74.0	80	67.4	0	0	---	0.00	29.937 
21:40	73.9	73.9	73.9	80	67.3	0	0	---	0.00	29.937 
21:45	73.9	73.9	73.9	81	67.7	0	0	---	0.00	29.936 
21:50	73.7	73.7	73.7	81	67.5	0	0	---	0.00	29.936 
21:55	73.5	73.5	73.5	82	67.7	0	0	---	0.00	29.936 
22:00	73.3	73.3	73.3	82	67.5	0	0	---	0.00	29.949 
22:05	73.2	73.2	73.2	82	67.4	0	0	---	0.00	29.949 
22:10	73.0	73.0	73.0	83	67.5	0	0	---	0.00	29.949 
22:15	72.8	72.8	72.8	84	67.7	0	0	---	0.00	29.934 
22:20	72.8	72.8	72.8	84	67.7	0	0	---	0.00	29.934 
22:25	72.8	72.8	72.8	84	67.7	0	0	---	0.00	29.934 
22:30	72.8	72.8	72.8	84	67.7	0	0	---	0.00	29.932 
22:35	72.7	72.7	72.7	84	67.6	0	0	---	0.00	29.932 
22:40	72.5	72.5	72.5	84	67.4	0	0	---	0.00	29.932 
22:45	72.3	72.3	72.3	84	67.2	0	0	---	0.00	29.933 
22:50	72.3	72.3	72.3	85	67.5	0	0	---	0.00	29.933 
22:55	72.1	72.1	72.1	85	67.3	0	0	---	0.00	29.933 
23:00	72.0	72.0	72.0	86	67.6	0	0	---	0.00	29.936 
23:05	71.8	71.8	71.8	87	67.7	0	0	---	0.00	29.936 
23:10	71.6	71.6	71.6	87	67.5	0	0	---	0.00	29.936 
23:15	71.6	71.6	71.6	88	67.8	0	0	---	0.00	29.931 
23:20	71.6	71.6	71.6	88	67.8	0	0	---	0.00	29.931 
23:25	71.5	71.5	71.5	88	67.7	0	0	---	0.00	29.931 
23:30	71.3	71.3	71.3	88	67.6	0	0	---	0.00	29.927 
23:35	71.3	71.3	71.3	88	67.6	0	0	---	0.00	29.927 
23:40	71.3	71.3	71.3	89	67.9	0	0	---	0.00	29.927 
23:45	71.3	71.3	71.3	89	67.9	0	0	---	0.00	29.920 
23:50	71.1	71.1	71.1	89	67.7	0	0	---	0.00	29.920 
23:55	71.1	71.1	71.1	90	68.0	0	0	---	0.00	29.920 

CoCoRaHS
IN-AL-39
A2 Web Hosting
Creative Commons License
GoDaddy
search engine by freefind advanced

loaded 2018-11-22 05:38:08 • last modified 2010-11-18 10:43:29
Privacy PolicyDisclaimer
• wx.awcolley.com is powered by PmWiki v.2002016 •
• all content (unless otherwise noted) © 2018 A W Colley